<?xml version="1.0" encoding="UTF-8" standalone="no" ?>
<gpx xmlns="http://www.topografix.com/GPX/1/1" xmlns:xsi="http://www.w3.org/2001/XMLSchema-instance" xsi:schemaLocation="http://www.topografix.com/GPX/1/1 http://www.topografix.com/GPX/1/1/gpx.xsd" version="1.1" creator="VisuGPX - https://www.visugpx.com">
  <metadata>
    <name>Chateau de Viale</name>
    <desc><![CDATA[Balade au soleil du Pégue (26) au Pégue. Passage à l'ancien chateau de Viale et à la chapelle Saint Blaise.]]></desc>
  </metadata>
  <trk>
    <name><![CDATA[Chateau de Viale_1]]></name>
    <trkseg>
      <trkpt lat="44.42984" lon="5.04892">
        <ele>427</ele>
        <time>2018-04-27T08:47:13.511Z</time>
      </trkpt>
      <trkpt lat="44.43012" lon="5.04941">
        <ele>435</ele>
        <time>2018-04-27T08:48:18.665Z</time>
      </trkpt>
      <trkpt lat="44.43063" lon="5.04981">
        <ele>428</ele>
        <time>2018-04-27T08:49:24.966Z</time>
      </trkpt>
      <trkpt lat="44.43137" lon="5.0503">
        <ele>414</ele>
        <time>2018-04-27T08:50:37.986Z</time>
      </trkpt>
      <trkpt lat="44.43212" lon="5.05086">
        <ele>433</ele>
        <time>2018-04-27T08:51:59.968Z</time>
      </trkpt>
      <trkpt lat="44.43281" lon="5.05137">
        <ele>424</ele>
        <time>2018-04-27T08:53:23.964Z</time>
      </trkpt>
      <trkpt lat="44.43329" lon="5.05182">
        <ele>394</ele>
        <time>2018-04-27T08:54:42.972Z</time>
      </trkpt>
      <trkpt lat="44.43352" lon="5.05164">
        <ele>448</ele>
        <time>2018-04-27T08:56:03.988Z</time>
      </trkpt>
      <trkpt lat="44.43372" lon="5.05172">
        <ele>427</ele>
        <time>2018-04-27T08:57:21.712Z</time>
      </trkpt>
      <trkpt lat="44.43398" lon="5.05201">
        <ele>427</ele>
        <time>2018-04-27T08:58:47.968Z</time>
      </trkpt>
      <trkpt lat="44.43479" lon="5.05245">
        <ele>450</ele>
        <time>2018-04-27T09:00:06.973Z</time>
      </trkpt>
      <trkpt lat="44.4354" lon="5.05234">
        <ele>449</ele>
        <time>2018-04-27T09:01:14.976Z</time>
      </trkpt>
      <trkpt lat="44.43576" lon="5.05283">
        <ele>450</ele>
        <time>2018-04-27T09:02:20.000Z</time>
      </trkpt>
      <trkpt lat="44.43635" lon="5.0534">
        <ele>435</ele>
        <time>2018-04-27T09:03:26.977Z</time>
      </trkpt>
      <trkpt lat="44.43692" lon="5.05368">
        <ele>470</ele>
        <time>2018-04-27T09:04:31.969Z</time>
      </trkpt>
      <trkpt lat="44.43762" lon="5.05418">
        <ele>468</ele>
        <time>2018-04-27T09:05:42.982Z</time>
      </trkpt>
      <trkpt lat="44.43834" lon="5.05448">
        <ele>445</ele>
        <time>2018-04-27T09:06:46.984Z</time>
      </trkpt>
      <trkpt lat="44.43924" lon="5.05438">
        <ele>462</ele>
        <time>2018-04-27T09:08:09.000Z</time>
      </trkpt>
      <trkpt lat="44.44004" lon="5.05335">
        <ele>455</ele>
        <time>2018-04-27T09:09:22.000Z</time>
      </trkpt>
      <trkpt lat="44.43945" lon="5.05338">
        <ele>462</ele>
        <time>2018-04-27T09:10:40.000Z</time>
      </trkpt>
      <trkpt lat="44.43966" lon="5.05326">
        <ele>453</ele>
        <time>2018-04-27T09:12:37.000Z</time>
      </trkpt>
      <trkpt lat="44.43983" lon="5.05339">
        <ele>456</ele>
        <time>2018-04-27T09:13:47.000Z</time>
      </trkpt>
      <trkpt lat="44.43987" lon="5.05344">
        <ele>467</ele>
        <time>2018-04-27T09:14:54.000Z</time>
      </trkpt>
      <trkpt lat="44.43989" lon="5.05346">
        <ele>469</ele>
        <time>2018-04-27T09:16:00.000Z</time>
      </trkpt>
      <trkpt lat="44.43988" lon="5.05344">
        <ele>465</ele>
        <time>2018-04-27T09:17:21.000Z</time>
      </trkpt>
      <trkpt lat="44.43991" lon="5.05348">
        <ele>473</ele>
        <time>2018-04-27T09:18:27.000Z</time>
      </trkpt>
      <trkpt lat="44.44023" lon="5.05345">
        <ele>460</ele>
        <time>2018-04-27T09:19:40.989Z</time>
      </trkpt>
      <trkpt lat="44.43994" lon="5.0535">
        <ele>474</ele>
        <time>2018-04-27T09:20:47.000Z</time>
      </trkpt>
      <trkpt lat="44.44011" lon="5.0531">
        <ele>465</ele>
        <time>2018-04-27T09:21:51.996Z</time>
      </trkpt>
      <trkpt lat="44.4403" lon="5.05325">
        <ele>471</ele>
        <time>2018-04-27T09:22:58.988Z</time>
      </trkpt>
      <trkpt lat="44.44031" lon="5.05292">
        <ele>462</ele>
        <time>2018-04-27T09:24:03.995Z</time>
      </trkpt>
      <trkpt lat="44.44047" lon="5.05295">
        <ele>450</ele>
        <time>2018-04-27T09:25:08.005Z</time>
      </trkpt>
      <trkpt lat="44.44081" lon="5.05217">
        <ele>452</ele>
        <time>2018-04-27T09:26:24.006Z</time>
      </trkpt>
      <trkpt lat="44.44114" lon="5.05206">
        <ele>461</ele>
        <time>2018-04-27T09:27:27.000Z</time>
      </trkpt>
      <trkpt lat="44.44157" lon="5.0516">
        <ele>478</ele>
        <time>2018-04-27T09:28:54.989Z</time>
      </trkpt>
      <trkpt lat="44.44204" lon="5.05116">
        <ele>523</ele>
        <time>2018-04-27T09:29:58.999Z</time>
      </trkpt>
      <trkpt lat="44.44253" lon="5.05064">
        <ele>505</ele>
        <time>2018-04-27T09:31:05.998Z</time>
      </trkpt>
      <trkpt lat="44.44284" lon="5.05039">
        <ele>511</ele>
        <time>2018-04-27T09:32:19.000Z</time>
      </trkpt>
      <trkpt lat="44.44312" lon="5.04985">
        <ele>516</ele>
        <time>2018-04-27T09:33:25.007Z</time>
      </trkpt>
      <trkpt lat="44.44314" lon="5.04946">
        <ele>527</ele>
        <time>2018-04-27T09:34:31.007Z</time>
      </trkpt>
      <trkpt lat="44.44328" lon="5.04881">
        <ele>530</ele>
        <time>2018-04-27T09:35:44.002Z</time>
      </trkpt>
      <trkpt lat="44.44374" lon="5.04823">
        <ele>527</ele>
        <time>2018-04-27T09:36:49.003Z</time>
      </trkpt>
      <trkpt lat="44.44414" lon="5.04787">
        <ele>614</ele>
        <time>2018-04-27T09:37:53.000Z</time>
      </trkpt>
      <trkpt lat="44.44392" lon="5.04796">
        <ele>534</ele>
        <time>2018-04-27T09:39:11.005Z</time>
      </trkpt>
      <trkpt lat="44.44397" lon="5.0479">
        <ele>525</ele>
        <time>2018-04-27T09:40:18.004Z</time>
      </trkpt>
      <trkpt lat="44.4441" lon="5.0478">
        <ele>525</ele>
        <time>2018-04-27T09:41:25.000Z</time>
      </trkpt>
      <trkpt lat="44.44404" lon="5.048">
        <ele>641</ele>
        <time>2018-04-27T09:42:30.010Z</time>
      </trkpt>
      <trkpt lat="44.44424" lon="5.04766">
        <ele>544</ele>
        <time>2018-04-27T09:43:35.015Z</time>
      </trkpt>
      <trkpt lat="44.44411" lon="5.04789">
        <ele>566</ele>
        <time>2018-04-27T09:44:39.023Z</time>
      </trkpt>
      <trkpt lat="44.4443" lon="5.04769">
        <ele>595</ele>
        <time>2018-04-27T09:45:53.015Z</time>
      </trkpt>
      <trkpt lat="44.44486" lon="5.04769">
        <ele>594</ele>
        <time>2018-04-27T09:46:59.020Z</time>
      </trkpt>
      <trkpt lat="44.44539" lon="5.04755">
        <ele>590</ele>
        <time>2018-04-27T09:48:04.711Z</time>
      </trkpt>
      <trkpt lat="44.44575" lon="5.04702">
        <ele>578</ele>
        <time>2018-04-27T09:49:06.000Z</time>
      </trkpt>
      <trkpt lat="44.44606" lon="5.04653">
        <ele>583</ele>
        <time>2018-04-27T09:50:07.000Z</time>
      </trkpt>
      <trkpt lat="44.44616" lon="5.04606">
        <ele>576</ele>
        <time>2018-04-27T09:51:20.000Z</time>
      </trkpt>
      <trkpt lat="44.44632" lon="5.04551">
        <ele>568</ele>
        <time>2018-04-27T09:52:21.000Z</time>
      </trkpt>
      <trkpt lat="44.44652" lon="5.04479">
        <ele>557</ele>
        <time>2018-04-27T09:53:31.596Z</time>
      </trkpt>
      <trkpt lat="44.44663" lon="5.04457">
        <ele>561</ele>
        <time>2018-04-27T09:54:38.009Z</time>
      </trkpt>
      <trkpt lat="44.44711" lon="5.0442">
        <ele>563</ele>
        <time>2018-04-27T09:55:40.587Z</time>
      </trkpt>
      <trkpt lat="44.44723" lon="5.0438">
        <ele>577</ele>
        <time>2018-04-27T09:56:47.019Z</time>
      </trkpt>
      <trkpt lat="44.4476" lon="5.0431">
        <ele>531</ele>
        <time>2018-04-27T09:57:54.000Z</time>
      </trkpt>
      <trkpt lat="44.44779" lon="5.04242">
        <ele>504</ele>
        <time>2018-04-27T09:58:59.028Z</time>
      </trkpt>
      <trkpt lat="44.44807" lon="5.042">
        <ele>528</ele>
        <time>2018-04-27T10:00:10.022Z</time>
      </trkpt>
      <trkpt lat="44.44795" lon="5.04188">
        <ele>520</ele>
        <time>2018-04-27T10:01:26.024Z</time>
      </trkpt>
      <trkpt lat="44.44797" lon="5.04205">
        <ele>562</ele>
        <time>2018-04-27T10:02:31.018Z</time>
      </trkpt>
      <trkpt lat="44.448" lon="5.04193">
        <ele>569</ele>
        <time>2018-04-27T10:03:38.029Z</time>
      </trkpt>
      <trkpt lat="44.44783" lon="5.04118">
        <ele>556</ele>
        <time>2018-04-27T10:04:41.019Z</time>
      </trkpt>
      <trkpt lat="44.44762" lon="5.04112">
        <ele>564</ele>
        <time>2018-04-27T10:05:49.021Z</time>
      </trkpt>
      <trkpt lat="44.44799" lon="5.04024">
        <ele>520</ele>
        <time>2018-04-27T10:07:18.000Z</time>
      </trkpt>
      <trkpt lat="44.44818" lon="5.03987">
        <ele>437</ele>
        <time>2018-04-27T10:08:24.031Z</time>
      </trkpt>
      <trkpt lat="44.44829" lon="5.03927">
        <ele>429</ele>
        <time>2018-04-27T10:09:29.021Z</time>
      </trkpt>
      <trkpt lat="44.44788" lon="5.03841">
        <ele>379</ele>
        <time>2018-04-27T10:10:37.041Z</time>
      </trkpt>
      <trkpt lat="44.44735" lon="5.03869">
        <ele>448</ele>
        <time>2018-04-27T10:11:42.036Z</time>
      </trkpt>
      <trkpt lat="44.44684" lon="5.03825">
        <ele>428</ele>
        <time>2018-04-27T10:12:48.029Z</time>
      </trkpt>
      <trkpt lat="44.44695" lon="5.03793">
        <ele>447</ele>
        <time>2018-04-27T10:14:02.044Z</time>
      </trkpt>
      <trkpt lat="44.44686" lon="5.0368">
        <ele>483</ele>
        <time>2018-04-27T10:15:08.000Z</time>
      </trkpt>
      <trkpt lat="44.44655" lon="5.03659">
        <ele>482</ele>
        <time>2018-04-27T10:16:11.035Z</time>
      </trkpt>
      <trkpt lat="44.4469" lon="5.03633">
        <ele>441</ele>
        <time>2018-04-27T10:17:19.032Z</time>
      </trkpt>
      <trkpt lat="44.447" lon="5.03574">
        <ele>441</ele>
        <time>2018-04-27T10:18:23.034Z</time>
      </trkpt>
      <trkpt lat="44.44671" lon="5.03624">
        <ele>426</ele>
        <time>2018-04-27T10:19:29.048Z</time>
      </trkpt>
      <trkpt lat="44.44716" lon="5.03583">
        <ele>576</ele>
        <time>2018-04-27T10:20:35.051Z</time>
      </trkpt>
      <trkpt lat="44.44718" lon="5.03586">
        <ele>474</ele>
        <time>2018-04-27T10:21:56.000Z</time>
      </trkpt>
      <trkpt lat="44.44702" lon="5.03595">
        <ele>572</ele>
        <time>2018-04-27T10:23:01.030Z</time>
      </trkpt>
      <trkpt lat="44.44709" lon="5.03583">
        <ele>566</ele>
        <time>2018-04-27T10:24:22.034Z</time>
      </trkpt>
      <trkpt lat="44.44704" lon="5.03586">
        <ele>571</ele>
        <time>2018-04-27T10:25:24.859Z</time>
      </trkpt>
      <trkpt lat="44.44706" lon="5.03588">
        <ele>471</ele>
        <time>2018-04-27T10:26:33.044Z</time>
      </trkpt>
      <trkpt lat="44.4472" lon="5.03595">
        <ele>478</ele>
        <time>2018-04-27T10:27:39.000Z</time>
      </trkpt>
      <trkpt lat="44.4472" lon="5.03595">
        <ele>481</ele>
        <time>2018-04-27T10:29:59.000Z</time>
      </trkpt>
      <trkpt lat="44.44719" lon="5.03595">
        <ele>485</ele>
        <time>2018-04-27T10:31:24.000Z</time>
      </trkpt>
      <trkpt lat="44.44718" lon="5.03594">
        <ele>488</ele>
        <time>2018-04-27T10:32:31.000Z</time>
      </trkpt>
      <trkpt lat="44.44717" lon="5.03594">
        <ele>490</ele>
        <time>2018-04-27T10:35:05.000Z</time>
      </trkpt>
      <trkpt lat="44.44716" lon="5.03594">
        <ele>492</ele>
        <time>2018-04-27T10:36:25.000Z</time>
      </trkpt>
      <trkpt lat="44.44715" lon="5.03595">
        <ele>494</ele>
        <time>2018-04-27T10:37:29.000Z</time>
      </trkpt>
      <trkpt lat="44.4471" lon="5.03598">
        <ele>503</ele>
        <time>2018-04-27T10:38:36.000Z</time>
      </trkpt>
      <trkpt lat="44.4471" lon="5.03596">
        <ele>505</ele>
        <time>2018-04-27T10:39:41.000Z</time>
      </trkpt>
      <trkpt lat="44.44712" lon="5.03553">
        <ele>485</ele>
        <time>2018-04-27T10:40:46.062Z</time>
      </trkpt>
      <trkpt lat="44.4471" lon="5.03562">
        <ele>483</ele>
        <time>2018-04-27T10:41:51.056Z</time>
      </trkpt>
      <trkpt lat="44.44709" lon="5.03592">
        <ele>510</ele>
        <time>2018-04-27T10:42:58.000Z</time>
      </trkpt>
      <trkpt lat="44.44693" lon="5.03584">
        <ele>498</ele>
        <time>2018-04-27T10:46:25.068Z</time>
      </trkpt>
      <trkpt lat="44.44659" lon="5.03587">
        <ele>498</ele>
        <time>2018-04-27T10:47:31.066Z</time>
      </trkpt>
      <trkpt lat="44.44689" lon="5.03577">
        <ele>472</ele>
        <time>2018-04-27T10:48:54.062Z</time>
      </trkpt>
      <trkpt lat="44.44656" lon="5.03626">
        <ele>490</ele>
        <time>2018-04-27T10:50:07.074Z</time>
      </trkpt>
      <trkpt lat="44.44673" lon="5.0363">
        <ele>501</ele>
        <time>2018-04-27T10:51:28.089Z</time>
      </trkpt>
      <trkpt lat="44.44709" lon="5.03592">
        <ele>511</ele>
        <time>2018-04-27T10:52:29.260Z</time>
      </trkpt>
      <trkpt lat="44.44709" lon="5.03574">
        <ele>570</ele>
        <time>2018-04-27T10:53:36.059Z</time>
      </trkpt>
      <trkpt lat="44.44707" lon="5.03594">
        <ele>516</ele>
        <time>2018-04-27T10:54:42.000Z</time>
      </trkpt>
      <trkpt lat="44.44705" lon="5.03591">
        <ele>523</ele>
        <time>2018-04-27T10:55:49.000Z</time>
      </trkpt>
      <trkpt lat="44.44703" lon="5.03593">
        <ele>526</ele>
        <time>2018-04-27T10:56:53.000Z</time>
      </trkpt>
      <trkpt lat="44.44702" lon="5.03592">
        <ele>529</ele>
        <time>2018-04-27T10:58:00.000Z</time>
      </trkpt>
      <trkpt lat="44.44702" lon="5.03592">
        <ele>532</ele>
        <time>2018-04-27T10:59:06.000Z</time>
      </trkpt>
      <trkpt lat="44.44702" lon="5.03592">
        <ele>534</ele>
        <time>2018-04-27T11:00:12.000Z</time>
      </trkpt>
      <trkpt lat="44.44702" lon="5.03592">
        <ele>534</ele>
        <time>2018-04-27T11:01:24.000Z</time>
      </trkpt>
      <trkpt lat="44.44725" lon="5.03529">
        <ele>434</ele>
        <time>2018-04-27T11:02:32.064Z</time>
      </trkpt>
      <trkpt lat="44.44702" lon="5.03592">
        <ele>533</ele>
        <time>2018-04-27T11:03:40.000Z</time>
      </trkpt>
      <trkpt lat="44.44698" lon="5.036">
        <ele>565</ele>
        <time>2018-04-27T11:05:09.074Z</time>
      </trkpt>
      <trkpt lat="44.44697" lon="5.03593">
        <ele>554</ele>
        <time>2018-04-27T11:06:25.070Z</time>
      </trkpt>
      <trkpt lat="44.44701" lon="5.03599">
        <ele>564</ele>
        <time>2018-04-27T11:07:30.078Z</time>
      </trkpt>
      <trkpt lat="44.44705" lon="5.03597">
        <ele>565</ele>
        <time>2018-04-27T11:08:36.070Z</time>
      </trkpt>
      <trkpt lat="44.44706" lon="5.03575">
        <ele>559</ele>
        <time>2018-04-27T11:11:06.077Z</time>
      </trkpt>
      <trkpt lat="44.4471" lon="5.0359">
        <ele>565</ele>
        <time>2018-04-27T11:12:26.071Z</time>
      </trkpt>
      <trkpt lat="44.44702" lon="5.03591">
        <ele>536</ele>
        <time>2018-04-27T11:13:34.000Z</time>
      </trkpt>
      <trkpt lat="44.44699" lon="5.036">
        <ele>562</ele>
        <time>2018-04-27T11:14:38.070Z</time>
      </trkpt>
      <trkpt lat="44.4471" lon="5.03585">
        <ele>551</ele>
        <time>2018-04-27T11:15:44.064Z</time>
      </trkpt>
      <trkpt lat="44.44688" lon="5.03589">
        <ele>550</ele>
        <time>2018-04-27T11:16:52.073Z</time>
      </trkpt>
      <trkpt lat="44.44688" lon="5.036">
        <ele>561</ele>
        <time>2018-04-27T11:17:56.062Z</time>
      </trkpt>
      <trkpt lat="44.4469" lon="5.0361">
        <ele>516</ele>
        <time>2018-04-27T11:19:00.060Z</time>
      </trkpt>
      <trkpt lat="44.44654" lon="5.03659">
        <ele>587</ele>
        <time>2018-04-27T11:20:07.071Z</time>
      </trkpt>
      <trkpt lat="44.4461" lon="5.03629">
        <ele>531</ele>
        <time>2018-04-27T11:21:25.779Z</time>
      </trkpt>
      <trkpt lat="44.44594" lon="5.03567">
        <ele>510</ele>
        <time>2018-04-27T11:22:34.063Z</time>
      </trkpt>
      <trkpt lat="44.44531" lon="5.0356">
        <ele>539</ele>
        <time>2018-04-27T11:23:40.061Z</time>
      </trkpt>
      <trkpt lat="44.44461" lon="5.03536">
        <ele>543</ele>
        <time>2018-04-27T11:25:00.354Z</time>
      </trkpt>
      <trkpt lat="44.44402" lon="5.03509">
        <ele>516</ele>
        <time>2018-04-27T11:26:04.358Z</time>
      </trkpt>
      <trkpt lat="44.4436" lon="5.03543">
        <ele>492</ele>
        <time>2018-04-27T11:27:08.568Z</time>
      </trkpt>
      <trkpt lat="44.4436" lon="5.0367">
        <ele>611</ele>
        <time>2018-04-27T11:28:16.113Z</time>
      </trkpt>
      <trkpt lat="44.44298" lon="5.03696">
        <ele>565</ele>
        <time>2018-04-27T11:29:22.166Z</time>
      </trkpt>
      <trkpt lat="44.44238" lon="5.03735">
        <ele>554</ele>
        <time>2018-04-27T11:30:30.069Z</time>
      </trkpt>
      <trkpt lat="44.44283" lon="5.03719">
        <ele>482</ele>
        <time>2018-04-27T11:31:33.605Z</time>
      </trkpt>
      <trkpt lat="44.44307" lon="5.03768">
        <ele>550</ele>
        <time>2018-04-27T11:32:41.070Z</time>
      </trkpt>
      <trkpt lat="44.44251" lon="5.03843">
        <ele>568</ele>
        <time>2018-04-27T11:34:02.073Z</time>
      </trkpt>
      <trkpt lat="44.44262" lon="5.03821">
        <ele>555</ele>
        <time>2018-04-27T11:35:39.000Z</time>
      </trkpt>
      <trkpt lat="44.4422" lon="5.03836">
        <ele>543</ele>
        <time>2018-04-27T11:36:44.000Z</time>
      </trkpt>
      <trkpt lat="44.44259" lon="5.03881">
        <ele>435</ele>
        <time>2018-04-27T11:37:50.000Z</time>
      </trkpt>
      <trkpt lat="44.44331" lon="5.03844">
        <ele>425</ele>
        <time>2018-04-27T11:39:01.000Z</time>
      </trkpt>
      <trkpt lat="44.44313" lon="5.0391">
        <ele>450</ele>
        <time>2018-04-27T11:40:05.000Z</time>
      </trkpt>
      <trkpt lat="44.44217" lon="5.04031">
        <ele>636</ele>
        <time>2018-04-27T11:41:25.000Z</time>
      </trkpt>
      <trkpt lat="44.4431" lon="5.03941">
        <ele>439</ele>
        <time>2018-04-27T11:42:29.000Z</time>
      </trkpt>
      <trkpt lat="44.44229" lon="5.03964">
        <ele>454</ele>
        <time>2018-04-27T11:43:50.000Z</time>
      </trkpt>
      <trkpt lat="44.44224" lon="5.03942">
        <ele>450</ele>
        <time>2018-04-27T11:45:07.075Z</time>
      </trkpt>
      <trkpt lat="44.44168" lon="5.03967">
        <ele>449</ele>
        <time>2018-04-27T11:46:23.078Z</time>
      </trkpt>
      <trkpt lat="44.44043" lon="5.0404">
        <ele>459</ele>
        <time>2018-04-27T11:48:43.087Z</time>
      </trkpt>
      <trkpt lat="44.44021" lon="5.0407">
        <ele>431</ele>
        <time>2018-04-27T11:50:05.079Z</time>
      </trkpt>
      <trkpt lat="44.43972" lon="5.04098">
        <ele>440</ele>
        <time>2018-04-27T11:51:08.798Z</time>
      </trkpt>
      <trkpt lat="44.43936" lon="5.04072">
        <ele>438</ele>
        <time>2018-04-27T11:52:18.092Z</time>
      </trkpt>
      <trkpt lat="44.43846" lon="5.03943">
        <ele>451</ele>
        <time>2018-04-27T11:54:40.099Z</time>
      </trkpt>
      <trkpt lat="44.43783" lon="5.03914">
        <ele>456</ele>
        <time>2018-04-27T11:55:44.094Z</time>
      </trkpt>
      <trkpt lat="44.43718" lon="5.03836">
        <ele>401</ele>
        <time>2018-04-27T11:56:50.087Z</time>
      </trkpt>
      <trkpt lat="44.43708" lon="5.03781">
        <ele>443</ele>
        <time>2018-04-27T11:57:55.091Z</time>
      </trkpt>
      <trkpt lat="44.43638" lon="5.03762">
        <ele>477</ele>
        <time>2018-04-27T11:59:02.091Z</time>
      </trkpt>
      <trkpt lat="44.43633" lon="5.03724">
        <ele>431</ele>
        <time>2018-04-27T12:00:08.063Z</time>
      </trkpt>
      <trkpt lat="44.43617" lon="5.03696">
        <ele>418</ele>
        <time>2018-04-27T12:01:26.098Z</time>
      </trkpt>
      <trkpt lat="44.43621" lon="5.03695">
        <ele>452</ele>
        <time>2018-04-27T12:02:32.107Z</time>
      </trkpt>
      <trkpt lat="44.4362" lon="5.03692">
        <ele>448</ele>
        <time>2018-04-27T12:03:37.000Z</time>
      </trkpt>
      <trkpt lat="44.43598" lon="5.03742">
        <ele>403</ele>
        <time>2018-04-27T12:04:42.000Z</time>
      </trkpt>
      <trkpt lat="44.43582" lon="5.03818">
        <ele>410</ele>
        <time>2018-04-27T12:05:46.000Z</time>
      </trkpt>
      <trkpt lat="44.43554" lon="5.03893">
        <ele>406</ele>
        <time>2018-04-27T12:06:51.000Z</time>
      </trkpt>
      <trkpt lat="44.43533" lon="5.03925">
        <ele>413</ele>
        <time>2018-04-27T12:07:57.097Z</time>
      </trkpt>
      <trkpt lat="44.43481" lon="5.04113">
        <ele>408</ele>
        <time>2018-04-27T12:10:05.000Z</time>
      </trkpt>
      <trkpt lat="44.4346" lon="5.04155">
        <ele>426</ele>
        <time>2018-04-27T12:11:24.102Z</time>
      </trkpt>
      <trkpt lat="44.43445" lon="5.04189">
        <ele>427</ele>
        <time>2018-04-27T12:12:30.000Z</time>
      </trkpt>
      <trkpt lat="44.4345" lon="5.0421">
        <ele>409</ele>
        <time>2018-04-27T12:13:35.102Z</time>
      </trkpt>
      <trkpt lat="44.43438" lon="5.04246">
        <ele>401</ele>
        <time>2018-04-27T12:14:41.104Z</time>
      </trkpt>
      <trkpt lat="44.43413" lon="5.04359">
        <ele>413</ele>
        <time>2018-04-27T12:17:28.962Z</time>
      </trkpt>
      <trkpt lat="44.43378" lon="5.04451">
        <ele>421</ele>
        <time>2018-04-27T12:18:34.106Z</time>
      </trkpt>
      <trkpt lat="44.43324" lon="5.04588">
        <ele>408</ele>
        <time>2018-04-27T12:20:00.920Z</time>
      </trkpt>
      <trkpt lat="44.43272" lon="5.04721">
        <ele>410</ele>
        <time>2018-04-27T12:21:24.117Z</time>
      </trkpt>
      <trkpt lat="44.43205" lon="5.04762">
        <ele>411</ele>
        <time>2018-04-27T12:22:30.100Z</time>
      </trkpt>
      <trkpt lat="44.43121" lon="5.0481">
        <ele>393</ele>
        <time>2018-04-27T12:23:47.107Z</time>
      </trkpt>
      <trkpt lat="44.43041" lon="5.04849">
        <ele>443</ele>
        <time>2018-04-27T12:25:01.632Z</time>
      </trkpt>
      <trkpt lat="44.43001" lon="5.04914">
        <ele>458</ele>
        <time>2018-04-27T12:26:23.177Z</time>
      </trkpt>
      <trkpt lat="44.42999" lon="5.04913">
        <ele>535</ele>
        <time>2018-04-27T12:27:32.000Z</time>
      </trkpt>
      <trkpt lat="44.42976" lon="5.04888">
        <ele>424</ele>
        <time>2018-04-27T12:28:36.115Z</time>
      </trkpt>
      <trkpt lat="44.42917" lon="5.04959">
        <ele>424</ele>
        <time>2018-04-27T12:30:15.121Z</time>
      </trkpt>
      <trkpt lat="44.42928" lon="5.04953">
        <ele>401</ele>
        <time>2018-04-27T12:31:26.114Z</time>
      </trkpt>
    </trkseg>
  </trk>
</gpx>